Stony Plain, Canada
Current Conditions -  °F | °C
As of 7:00 PM on Sunday 25 Jan 2015 (Local Time) from CWSE Reporting Station
Overcast Overcast  
Wind Chill: 45°   Ceiling: 9800
Heat Index: 47°   Visibility: 15mi
Dew Point: 25°   Wind: 5mph
Humidity: 42%   Direction: 290°WNW
Pressure: 29.81"   Gusts: NA
Location:  53.53°N, 114.01°W
Report Text: CWSE 260200Z 29004KT 15SM BKN098 OVC118 08/M04 A2981 RMK SLP106 LAST OBS/NEXT 261100 UTC T00831040 WSI/SWOB
Loading
Personal Weather Stations






























Interactive Weather Map New forecast layout! Learn more

10-Day Weather Forecast

Advertisements
Track Severe Weather on mobile